Midland International Airport
KMAF : rendu visible

Aérodrome :











RETROUVEZ-NOUS SUR...

 
LOGIN :

S'inscrire | Disclaimer

   EN    FR    IT 

 









Légende :    VFR   VFR Marginal   IFR   IFR Intensif   IFR Très Intensif
Visi : 
Plafond : 
>= 8 km
>= 3000ft
5 à 8 km
1000 à 3000 ft
1500m à 5 km
500 à 1000 ft
800 à 1500m
200 à 500 ft
< 800m
< 200 ft
Symboles :   Orages  Brouillard  Fortes neiges  Fortes précipitations  Vent > 20 kt






- Altitude de l'aérodrome : 2871 ft
- Code IATA : MAF


KMAF - Midland International

DERNIER METAR :
  • 211553Z 18008KT 8SM BKN016 18/14 A2996 RMK AO2 SLP112 T01830144 $

METARs EXPIRÉS :
  • 211453Z 14005KT 5SM BR OVC018 18/16 A2994 RMK AO2 SLP108 T01780156 53012
  • 211353Z 15005KT 3SM BR OVC017 17/16 A2993 RMK AO2 SLP102 T01720156

TAF KMAF
Valide du 21 à 14h jusqu'au 22 à 12h UTC


211421Z 2114/2212 08004KT 3SM BR OVC017
FM211700 14005KT P6SM BKN015
FM211900 07005KT P6SM SCT025 SCT250
FM220300 08011KT P6SM BKN007



MET'MAP, la Météo Aéronautique d'un coup d'oeil ! - Copyright ORBIFLY Décembre 2007 - Disclaimer

ORBIFLY MET'MAP TEAM :

Programmation & Développement : Alexandra Zaïnal
Conception & Développement : Baudouin d'Aumeries
Co-Programmation & Développement : Marc-Olivier Méhu
Soutien technique & logistique : Manuel Goepfert

Contact : metmap@orbifly.com




SOURCES & CREDITS :

   NOAA       Earth
Advisory